createdAt,value
2023-04-02T00:02:22.028Z,1.17
2023-04-02T00:05:35.048Z,1.85
2023-04-02T00:08:41.575Z,1.02
2023-04-02T00:11:49.246Z,1.95
2023-04-02T00:14:55.634Z,0.88
2023-04-02T00:18:00.855Z,1.08
2023-04-02T00:21:21.284Z,0.93
2023-04-02T00:24:24.586Z,0.90
2023-04-02T00:27:28.013Z,0.80
2023-04-02T00:30:31.837Z,1.10
2023-04-02T00:33:36.076Z,1.33
2023-04-02T00:36:39.544Z,3.17
2023-04-02T00:39:43.736Z,2.15
2023-04-02T00:42:49.055Z,1.67
2023-04-02T00:45:56.711Z,2.35
2023-04-02T00:49:09.774Z,1.15
2023-04-02T00:52:22.116Z,1.48
2023-04-02T00:55:34.204Z,2.25
2023-04-02T00:58:38.230Z,0.98
2023-04-02T01:01:43.311Z,0.50
2023-04-02T01:05:06.284Z,0.70
2023-04-02T01:08:25.305Z,0.65
2023-04-02T01:12:05.719Z,0.80
2023-04-02T01:15:28.524Z,1.27
2023-04-02T01:19:02.606Z,1.13
2023-04-02T01:22:08.924Z,2.30
2023-04-02T01:25:18.857Z,2.00
2023-04-02T01:28:50.004Z,1.23
2023-04-02T01:31:56.296Z,1.33
2023-04-02T01:34:59.751Z,1.33
2023-04-02T01:38:19.184Z,1.67
2023-04-02T01:41:35.012Z,2.00
2023-04-02T01:44:49.649Z,2.20
2023-04-02T01:47:57.953Z,1.00
2023-04-02T01:51:04.638Z,1.27
2023-04-02T01:54:09.407Z,1.27
2023-04-02T01:57:24.174Z,0.93
2023-04-02T02:00:31.034Z,1.85
2023-04-02T02:03:36.151Z,1.65
2023-04-02T02:06:41.906Z,0.93
2023-04-02T02:09:46.369Z,1.38
2023-04-02T02:12:50.344Z,1.05
2023-04-02T02:15:57.519Z,1.33
2023-04-02T02:19:05.358Z,0.63
2023-04-02T02:22:40.341Z,1.65
2023-04-02T02:25:44.888Z,0.80
2023-04-02T02:28:54.543Z,0.75
2023-04-02T02:32:00.282Z,0.65
2023-04-02T02:35:21.374Z,2.25
2023-04-02T02:38:35.370Z,1.88
2023-04-02T02:41:53.289Z,1.02
2023-04-02T02:44:59.481Z,0.95
2023-04-02T02:48:04.491Z,1.23
2023-04-02T02:51:15.677Z,1.55
2023-04-02T02:54:20.475Z,0.93
2023-04-02T02:57:31.592Z,2.25
2023-04-02T03:00:36.769Z,0.90
2023-04-02T03:03:41.098Z,1.35
2023-04-02T03:06:53.597Z,0.93
2023-04-02T03:10:20.711Z,1.25
2023-04-02T03:13:36.496Z,1.50
2023-04-02T03:16:57.457Z,1.17
2023-04-02T03:20:37.108Z,1.30
2023-04-02T03:23:47.340Z,1.42
2023-04-02T03:27:18.002Z,1.67
2023-04-02T03:30:44.026Z,2.05
2023-04-02T03:34:00.271Z,1.70
2023-04-02T03:37:18.781Z,1.50
2023-04-02T03:40:34.057Z,0.60
2023-04-02T03:43:59.384Z,1.50
2023-04-02T03:47:13.407Z,1.23
2023-04-02T03:50:30.133Z,1.17
2023-04-02T03:53:35.513Z,1.48
2023-04-02T03:56:42.261Z,1.85
2023-04-02T04:00:18.258Z,2.25
2023-04-02T04:03:42.747Z,1.27
2023-04-02T04:06:50.933Z,1.27
2023-04-02T04:09:59.374Z,1.70
2023-04-02T04:13:08.234Z,2.53
2023-04-02T04:16:27.527Z,1.13
2023-04-02T04:19:39.878Z,1.55
2023-04-02T04:22:43.429Z,1.25
2023-04-02T04:26:02.694Z,1.17
2023-04-02T04:29:15.063Z,1.25
2023-04-02T04:32:32.690Z,1.00
2023-04-02T04:35:52.521Z,1.35
2023-04-02T04:39:07.149Z,0.93
2023-04-02T04:42:28.216Z,1.55
2023-04-02T04:45:51.234Z,1.63
2023-04-02T04:49:09.788Z,1.35
2023-04-02T04:52:38.383Z,1.25
2023-04-02T04:55:48.536Z,1.83
2023-04-02T04:59:27.013Z,3.15
2023-04-02T05:02:39.732Z,1.98
2023-04-02T05:05:50.060Z,1.15
2023-04-02T05:08:56.571Z,3.05
2023-04-02T05:12:23.443Z,2.40
2023-04-02T05:15:42.917Z,1.75
2023-04-02T05:19:57.464Z,2.10
2023-04-02T05:23:17.553Z,1.55
2023-04-02T05:26:42.706Z,1.80
2023-04-02T05:29:51.038Z,1.30
2023-04-02T05:33:20.788Z,2.10
2023-04-02T05:36:28.594Z,0.88
2023-04-02T05:39:34.551Z,3.10
2023-04-02T05:42:39.075Z,2.40
2023-04-02T05:45:58.127Z,0.80
2023-04-02T05:49:02.358Z,1.08
2023-04-02T05:52:13.041Z,2.17
2023-04-02T05:55:20.292Z,1.70
2023-04-02T05:58:41.993Z,1.13
2023-04-02T06:02:25.824Z,1.08
2023-04-02T06:05:37.048Z,1.52
2023-04-02T06:08:48.552Z,1.23
2023-04-02T06:12:18.747Z,1.90
2023-04-02T06:15:26.585Z,0.98
2023-04-02T06:18:37.761Z,1.13
2023-04-02T06:21:51.869Z,1.45
2023-04-02T06:25:21.378Z,1.27
2023-04-02T06:28:32.028Z,1.35
2023-04-02T06:31:58.444Z,1.30
2023-04-02T06:35:02.527Z,2.40
2023-04-02T06:38:08.422Z,1.67
2023-04-02T06:41:22.915Z,2.22
2023-04-02T06:44:47.208Z,3.42
2023-04-02T06:48:19.330Z,3.20
2023-04-02T06:51:31.232Z,1.92
2023-04-02T06:54:41.714Z,2.17
2023-04-02T06:57:49.552Z,2.05
2023-04-02T07:00:58.966Z,2.17
2023-04-02T07:04:28.990Z,2.63
2023-04-02T07:07:50.066Z,1.25
2023-04-02T07:11:22.075Z,3.30
2023-04-02T07:17:57.458Z,3.30
2023-04-02T07:21:01.640Z,1.80
2023-04-02T07:24:33.434Z,2.30
2023-04-02T07:27:37.092Z,3.05
2023-04-02T07:30:40.779Z,3.13
2023-04-02T07:33:45.424Z,2.05
2023-04-02T07:37:15.378Z,1.05
2023-04-02T07:40:26.624Z,1.45
2023-04-02T07:43:31.869Z,1.17
2023-04-02T07:46:47.015Z,1.90
2023-04-02T07:49:55.396Z,1.60
2023-04-02T07:53:09.007Z,2.08
2023-04-02T08:03:22.529Z,2.42
2023-04-02T08:06:28.753Z,1.17
2023-04-02T08:10:11.667Z,1.80
2023-04-02T08:13:46.040Z,1.45
2023-04-02T08:16:56.826Z,1.85
2023-04-02T08:20:07.499Z,1.02
2023-04-02T08:23:19.927Z,2.30
2023-04-02T08:26:26.860Z,2.03
2023-04-02T08:29:33.643Z,2.65
2023-04-02T08:32:52.548Z,1.75
2023-04-02T08:36:21.235Z,3.22
2023-04-02T08:39:47.450Z,3.78
2023-04-02T08:43:17.585Z,3.63
2023-04-02T08:46:39.301Z,2.85
2023-04-02T08:50:02.771Z,3.05
2023-04-02T08:53:18.448Z,5.45
2023-04-02T08:56:40.951Z,4.82
2023-04-02T08:59:45.937Z,5.40
2023-04-02T09:02:57.964Z,3.97
2023-04-02T09:06:03.288Z,3.63
2023-04-02T09:09:10.738Z,4.88
2023-04-02T09:12:19.020Z,4.57
2023-04-02T09:15:32.134Z,4.78
2023-04-02T09:18:37.683Z,3.92
2023-04-02T09:22:00.624Z,3.60
2023-04-02T09:25:12.663Z,3.67
2023-04-02T09:28:16.811Z,3.80
2023-04-02T09:31:27.529Z,2.60
2023-04-02T09:34:36.264Z,2.53
2023-04-02T09:37:40.948Z,2.92
2023-04-02T09:41:05.898Z,3.15
2023-04-02T09:44:32.995Z,3.25
2023-04-02T09:47:37.151Z,3.00
2023-04-02T09:50:41.193Z,2.22
2023-04-02T09:53:49.977Z,2.22
2023-04-02T09:57:04.930Z,3.22
2023-04-02T10:00:32.063Z,3.88
2023-04-02T10:03:43.943Z,3.55
2023-04-02T10:06:54.494Z,3.83
2023-04-02T10:10:04.277Z,2.95
2023-04-02T10:13:33.880Z,4.80
2023-04-02T10:16:58.731Z,2.47
2023-04-02T10:20:12.114Z,2.92
2023-04-02T10:23:19.464Z,2.88
2023-04-02T10:26:39.024Z,2.60
2023-04-02T10:29:53.254Z,1.67
2023-04-02T10:33:34.682Z,2.92
2023-04-02T10:37:00.442Z,2.78
2023-04-02T10:40:35.737Z,3.38
2023-04-02T10:43:47.665Z,2.72
2023-04-02T10:47:09.444Z,3.60
2023-04-02T10:50:37.113Z,3.75
2023-04-02T10:54:05.419Z,2.72
2023-04-02T10:57:31.608Z,3.58
2023-04-02T11:00:42.471Z,4.22
2023-04-02T11:03:58.136Z,3.22
2023-04-02T11:07:14.626Z,2.35
2023-04-02T11:10:21.076Z,2.85
2023-04-02T11:13:31.011Z,2.70
2023-04-02T11:23:22.912Z,2.08
2023-04-02T11:26:47.864Z,1.73
2023-04-02T11:33:44.733Z,0.68
2023-04-02T11:40:11.053Z,3.08
2023-04-02T11:43:38.661Z,1.63
2023-04-02T11:50:11.839Z,1.65
2023-04-02T11:57:16.094Z,1.30
2023-04-02T12:00:56.593Z,1.17
2023-04-02T12:04:18.633Z,1.50
2023-04-02T12:10:58.973Z,2.00
2023-04-02T12:24:44.645Z,3.95
2023-04-02T12:28:12.576Z,3.25
2023-04-02T12:34:52.387Z,3.38
2023-04-02T12:37:59.198Z,2.58
2023-04-02T12:41:19.705Z,1.73
2023-04-02T12:44:25.999Z,3.00
2023-04-02T12:47:30.812Z,2.13
2023-04-02T12:50:35.768Z,1.50
2023-04-02T12:53:50.033Z,1.75
2023-04-02T12:56:56.689Z,2.97
2023-04-02T13:00:06.887Z,3.08
2023-04-02T13:03:23.121Z,2.45
2023-04-02T13:06:27.754Z,1.63
2023-04-02T13:09:44.469Z,2.42
2023-04-02T13:12:55.579Z,3.45
2023-04-02T13:16:38.226Z,3.30
2023-04-02T13:19:42.690Z,3.22
2023-04-02T13:22:49.956Z,3.60
2023-04-02T13:25:56.169Z,3.10
2023-04-02T13:29:21.543Z,3.47
2023-04-02T13:32:32.603Z,3.90
2023-04-02T13:35:36.257Z,2.40
2023-04-02T13:38:39.928Z,3.22
2023-04-02T13:41:51.959Z,2.85
2023-04-02T13:44:58.014Z,2.80
2023-04-02T13:48:04.367Z,2.53
2023-04-02T13:51:07.782Z,4.07
2023-04-02T13:54:46.583Z,2.65
2023-04-02T13:57:51.070Z,2.28
2023-04-02T14:00:57.549Z,3.28
2023-04-02T14:04:02.278Z,3.13
2023-04-02T14:07:27.690Z,3.17
2023-04-02T14:10:48.849Z,2.72
2023-04-02T14:14:04.428Z,3.15
2023-04-02T14:17:35.342Z,2.20
2023-04-02T14:21:00.022Z,3.00
2023-04-02T14:24:17.901Z,4.63
2023-04-02T14:27:33.012Z,3.42
2023-04-02T14:30:54.851Z,3.05
2023-04-02T14:34:01.145Z,4.20
2023-04-02T14:37:37.761Z,4.68
2023-04-02T14:40:55.591Z,5.95
2023-04-02T14:44:24.644Z,4.20
2023-04-02T14:47:55.140Z,6.47
2023-04-02T14:51:12.762Z,7.65
2023-04-02T14:54:23.628Z,9.20
2023-04-02T14:57:39.581Z,11.40
2023-04-02T15:00:47.070Z,11.38
2023-04-02T15:03:56.869Z,10.77
2023-04-02T15:07:18.801Z,11.18
2023-04-02T15:10:58.659Z,11.52
2023-04-02T15:14:09.190Z,9.93
2023-04-02T15:17:13.414Z,8.82
2023-04-02T15:20:20.528Z,6.30
2023-04-02T15:23:55.601Z,5.72
2023-04-02T15:27:25.402Z,3.50
2023-04-02T15:30:35.949Z,2.58
2023-04-02T15:34:01.730Z,4.45
2023-04-02T15:37:36.675Z,3.25
2023-04-02T15:40:58.189Z,2.60
2023-04-02T15:44:05.585Z,2.65
2023-04-02T15:47:19.427Z,2.97
2023-04-02T15:50:44.093Z,2.85
2023-04-02T15:53:57.524Z,1.92
2023-04-02T15:57:21.872Z,1.92
2023-04-02T16:00:27.479Z,3.00
2023-04-02T16:04:00.327Z,2.40
2023-04-02T16:07:03.655Z,2.65
2023-04-02T16:10:40.201Z,3.55
2023-04-02T16:13:45.649Z,3.33
2023-04-02T16:16:51.752Z,3.90
2023-04-02T16:20:17.873Z,4.57
2023-04-02T16:23:32.847Z,6.20
2023-04-02T16:26:55.618Z,10.18
2023-04-02T16:30:02.009Z,7.20
2023-04-02T16:33:34.573Z,6.85
2023-04-02T16:37:04.357Z,6.85
2023-04-02T16:40:32.703Z,6.47
2023-04-02T16:43:53.665Z,5.70
2023-04-02T16:47:06.742Z,5.82
2023-04-02T16:50:34.626Z,6.28
2023-04-02T16:54:18.585Z,6.10
2023-04-02T16:57:37.174Z,6.10
2023-04-02T17:01:17.045Z,5.45
2023-04-02T17:04:30.948Z,5.60
2023-04-02T17:07:42.477Z,3.35
2023-04-02T17:11:07.809Z,3.85
2023-04-02T17:14:30.803Z,2.78
2023-04-02T17:17:34.126Z,2.03
2023-04-02T17:20:37.603Z,1.05
2023-04-02T17:24:03.030Z,1.35
2023-04-02T17:27:28.538Z,1.20
2023-04-02T17:30:54.298Z,1.40
2023-04-02T17:33:58.052Z,1.10
2023-04-02T17:37:13.305Z,1.30
2023-04-02T17:40:26.415Z,1.30
2023-04-02T17:43:32.703Z,1.58
2023-04-02T17:46:58.438Z,1.70
2023-04-02T17:50:43.383Z,1.40
2023-04-02T17:54:05.237Z,1.55
2023-04-02T17:57:28.500Z,2.17
2023-04-02T18:00:42.496Z,2.63
2023-04-02T18:04:14.309Z,2.45
2023-04-02T18:07:47.498Z,2.92
2023-04-02T18:11:25.932Z,2.08
2023-04-02T18:15:07.115Z,2.83
2023-04-02T18:18:25.204Z,1.48
2023-04-02T18:21:42.570Z,2.05
2023-04-02T18:25:09.391Z,2.17
2023-04-02T18:28:15.834Z,2.58
2023-04-02T18:31:37.332Z,2.65
2023-04-02T18:35:05.040Z,2.38
2023-04-02T18:38:41.181Z,2.85
2023-04-02T18:41:53.329Z,2.38
2023-04-02T18:45:19.466Z,2.85
2023-04-02T18:48:57.364Z,2.00
2023-04-02T18:52:03.836Z,2.95
2023-04-02T18:55:15.349Z,1.75
2023-04-02T18:58:57.504Z,1.77
2023-04-02T19:02:27.863Z,1.63
2023-04-02T19:05:39.955Z,1.92
2023-04-02T19:08:50.963Z,1.48
2023-04-02T19:11:54.334Z,1.58
2023-04-02T19:14:59.787Z,1.80
2023-04-02T19:18:21.706Z,1.75
2023-04-02T19:21:45.549Z,1.33
2023-04-02T19:25:09.506Z,1.20
2023-04-02T19:28:17.429Z,1.38
2023-04-02T19:31:51.167Z,1.60
2023-04-02T19:35:00.154Z,1.48
2023-04-02T19:38:37.226Z,1.02
2023-04-02T19:42:20.414Z,1.08
2023-04-02T19:45:40.099Z,1.00
2023-04-02T19:48:53.817Z,0.85
2023-04-02T19:51:57.670Z,1.10
2023-04-02T19:55:00.991Z,0.75
2023-04-02T19:58:13.083Z,0.98
2023-04-02T20:01:22.881Z,1.20
2023-04-02T20:04:26.348Z,1.30
2023-04-02T20:07:31.950Z,1.20
2023-04-02T20:10:35.787Z,0.65
2023-04-02T20:13:41.221Z,2.17
2023-04-02T20:16:45.868Z,0.93
2023-04-02T20:19:49.315Z,1.25
2023-04-02T20:22:52.588Z,1.85
2023-04-02T20:25:58.237Z,2.30
2023-04-02T20:29:01.718Z,1.83
2023-04-02T20:32:05.253Z,1.65
2023-04-02T20:35:08.954Z,1.70
2023-04-02T20:38:12.681Z,1.88
2023-04-02T20:41:18.948Z,1.83
2023-04-02T20:44:22.501Z,2.22
2023-04-02T20:47:25.895Z,1.20
2023-04-02T20:50:29.707Z,1.52
2023-04-02T20:53:35.233Z,1.20
2023-04-02T20:56:38.664Z,1.67
2023-04-02T20:59:42.044Z,1.95
2023-04-02T21:02:45.677Z,1.75
2023-04-02T21:05:49.300Z,2.47
2023-04-02T21:08:53.473Z,3.15
2023-04-02T21:11:56.792Z,3.08
2023-04-02T21:15:02.313Z,1.90
2023-04-02T21:18:06.261Z,1.90
2023-04-02T21:21:09.670Z,1.48
2023-04-02T21:24:13.031Z,1.60
2023-04-02T21:27:16.905Z,1.10
2023-04-02T21:30:20.416Z,1.27
2023-04-02T21:33:23.692Z,0.85
2023-04-02T21:36:30.465Z,0.85
2023-04-02T21:39:34.956Z,1.52
2023-04-02T21:42:38.295Z,1.50
2023-04-02T21:45:42.103Z,2.38
2023-04-02T21:48:46.250Z,1.20
2023-04-02T21:51:52.053Z,1.10
2023-04-02T21:54:55.309Z,1.40
2023-04-02T21:57:58.592Z,1.08
2023-04-02T22:01:01.935Z,2.40
2023-04-02T22:04:06.822Z,1.20
2023-04-02T22:07:10.141Z,1.70
2023-04-02T22:10:13.476Z,2.03
2023-04-02T22:13:16.868Z,2.30
2023-04-02T22:16:22.749Z,3.17
2023-04-02T22:19:26.070Z,2.97
2023-04-02T22:22:29.365Z,3.58
2023-04-02T22:25:32.711Z,2.78
2023-04-02T22:28:36.828Z,3.63
2023-04-02T22:31:40.269Z,3.42
2023-04-02T22:34:46.211Z,3.13
2023-04-02T22:37:49.574Z,2.75
2023-04-02T22:40:52.973Z,2.67
2023-04-02T22:43:57.567Z,3.03
2023-04-02T22:47:00.978Z,2.95
2023-04-02T22:50:04.384Z,4.43
2023-04-02T22:53:07.933Z,3.25
2023-04-02T22:56:13.167Z,2.22
2023-04-02T22:59:16.779Z,2.22
2023-04-02T23:02:20.358Z,2.05
2023-04-02T23:05:23.769Z,1.92
2023-04-02T23:08:27.268Z,1.27
2023-04-02T23:11:30.634Z,1.92
2023-04-02T23:14:34.060Z,1.13
2023-04-02T23:17:38.486Z,1.30
2023-04-02T23:20:41.949Z,3.00
2023-04-02T23:23:46.363Z,1.33
2023-04-02T23:26:49.709Z,1.88
2023-04-02T23:29:52.999Z,3.58
2023-04-02T23:32:56.492Z,1.77
2023-04-02T23:35:59.933Z,2.47
2023-04-02T23:39:09.845Z,2.08
2023-04-02T23:42:13.261Z,1.88
2023-04-02T23:45:16.910Z,1.30
2023-04-02T23:48:20.183Z,2.55
2023-04-02T23:51:24.651Z,2.03
2023-04-02T23:54:28.166Z,1.10
2023-04-02T23:57:31.543Z,3.00
